createdAt,value
2019-04-14T00:00:05.577Z,87.62
2019-04-14T00:02:44.712Z,87.89
2019-04-14T00:05:16.917Z,88.43
2019-04-14T00:07:49.438Z,86.94
2019-04-14T00:10:22.466Z,87.85
2019-04-14T00:12:53.934Z,88.32
2019-04-14T00:15:33.080Z,89.04
2019-04-14T00:17:58.973Z,88.30
2019-04-14T00:20:31.447Z,88.24
2019-04-14T00:23:02.801Z,87.64
2019-04-14T00:25:34.784Z,88.27
2019-04-14T00:28:07.308Z,88.79
2019-04-14T00:30:38.697Z,88.60
2019-04-14T00:33:10.928Z,89.04
2019-04-14T00:36:06.603Z,88.46
2019-04-14T00:38:41.243Z,88.32
2019-04-14T00:41:18.358Z,88.76
2019-04-14T00:44:10.067Z,88.74
2019-04-14T00:47:01.447Z,89.57
2019-04-14T00:49:33.943Z,90.15
2019-04-14T00:52:05.760Z,90.62
2019-04-14T00:54:37.291Z,90.35
2019-04-14T00:57:09.400Z,90.39
2019-04-14T00:59:41.879Z,90.60
2019-04-14T01:02:14.495Z,90.45
2019-04-14T01:04:46.953Z,90.14
2019-04-14T01:07:19.430Z,90.00
2019-04-14T01:09:51.088Z,89.50
2019-04-14T01:12:23.524Z,89.52
2019-04-14T01:14:56.010Z,89.63
2019-04-14T01:17:28.642Z,88.94
2019-04-14T01:19:59.984Z,88.95
2019-04-14T01:22:31.491Z,89.17
2019-04-14T01:25:02.824Z,89.58
2019-04-14T01:27:34.258Z,88.85
2019-04-14T01:30:06.671Z,88.74
2019-04-14T01:32:39.299Z,88.42
2019-04-14T01:35:12.255Z,88.34
2019-04-14T01:37:44.076Z,88.93
2019-04-14T01:40:16.406Z,89.51
2019-04-14T01:42:48.517Z,90.08
2019-04-14T01:45:20.970Z,90.40
2019-04-14T01:47:53.315Z,90.41
2019-04-14T01:50:34.471Z,89.31
2019-04-14T01:53:14.679Z,89.96
2019-04-14T01:56:08.013Z,90.59
2019-04-14T01:58:49.135Z,90.76
2019-04-14T02:01:26.422Z,90.39
2019-04-14T02:03:58.477Z,90.52
2019-04-14T02:06:31.008Z,90.03
2019-04-14T02:09:03.307Z,90.48
2019-04-14T02:11:35.579Z,90.25
2019-04-14T02:14:08.187Z,89.93
2019-04-14T02:16:45.346Z,90.29
2019-04-14T02:19:13.210Z,90.39
2019-04-14T02:21:45.630Z,90.25
2019-04-14T02:24:17.835Z,90.24
2019-04-14T02:26:50.190Z,89.48
2019-04-14T02:29:21.648Z,89.86
2019-04-14T02:33:13.849Z,89.70
2019-04-14T02:34:57.437Z,89.53
2019-04-14T02:42:36.617Z,89.69
2019-04-14T02:52:46.980Z,90.23
2019-04-14T02:55:10.718Z,89.99
2019-04-14T02:57:52.488Z,89.84
2019-04-14T03:00:23.996Z,89.59
2019-04-14T03:02:48.667Z,90.06
2019-04-14T03:05:27.012Z,89.83
2019-04-14T03:07:59.783Z,89.78
2019-04-14T03:10:47.776Z,89.89
2019-04-14T03:13:15.765Z,89.36
2019-04-14T03:15:48.223Z,88.96
2019-04-14T03:21:28.027Z,90.33
2019-04-14T03:24:24.202Z,89.50
2019-04-14T03:27:22.387Z,89.50
2019-04-14T03:30:17.426Z,89.26
2019-04-14T03:33:05.570Z,89.01
2019-04-14T03:40:28.161Z,89.46
2019-04-14T03:42:55.017Z,89.89
2019-04-14T03:45:36.165Z,88.95
2019-04-14T03:56:12.628Z,89.14
2019-04-14T03:58:44.327Z,89.34
2019-04-14T04:01:15.795Z,89.23
2019-04-14T04:03:47.859Z,88.52
2019-04-14T04:06:20.262Z,88.35
2019-04-14T04:08:51.622Z,88.34
2019-04-14T04:11:23.767Z,87.69
2019-04-14T04:13:56.267Z,87.39
2019-04-14T04:16:37.557Z,87.85
2019-04-14T04:19:19.769Z,88.58
2019-04-14T04:22:13.088Z,88.46
2019-04-14T04:24:50.023Z,89.33
2019-04-14T04:27:28.765Z,89.50
2019-04-14T04:30:23.065Z,88.73
2019-04-14T04:33:04.390Z,88.94
2019-04-14T04:35:43.601Z,89.51
2019-04-14T04:38:33.327Z,89.65
2019-04-14T04:41:05.775Z,89.70
2019-04-14T04:43:37.231Z,89.20
2019-04-14T04:46:09.120Z,88.47
2019-04-14T04:48:41.466Z,88.56
2019-04-14T04:51:13.844Z,88.69
2019-04-14T04:53:46.205Z,88.73
2019-04-14T04:56:18.629Z,87.72
2019-04-14T04:58:50.243Z,88.03
2019-04-14T05:01:21.591Z,87.71
2019-04-14T05:03:53.614Z,87.42
2019-04-14T05:06:59.427Z,86.79
2019-04-14T05:09:49.127Z,87.06
2019-04-14T05:12:39.309Z,87.51
2019-04-14T05:15:29.082Z,87.13
2019-04-14T05:18:00.493Z,87.26
2019-04-14T05:20:31.837Z,88.04
2019-04-14T05:23:03.734Z,88.00
2019-04-14T05:25:35.027Z,88.00
2019-04-14T05:28:06.963Z,87.84
2019-04-14T05:30:39.310Z,86.93
2019-04-14T05:33:11.984Z,86.68
2019-04-14T05:35:44.521Z,86.39
2019-04-14T05:38:16.928Z,85.75
2019-04-14T05:40:49.568Z,85.58
2019-04-14T05:43:30.329Z,86.57
2019-04-14T05:45:54.493Z,86.92
2019-04-14T05:48:27.134Z,86.70
2019-04-14T05:50:59.775Z,86.76
2019-04-14T05:53:31.178Z,87.04
2019-04-14T05:56:03.479Z,87.07
2019-04-14T05:58:36.045Z,86.80
2019-04-14T06:01:08.984Z,85.95
2019-04-14T06:03:40.794Z,84.45
2019-04-14T06:06:12.099Z,84.70
2019-04-14T06:08:43.429Z,85.48
2019-04-14T06:11:14.750Z,85.36
2019-04-14T06:13:45.999Z,84.82
2019-04-14T06:16:17.337Z,85.18
2019-04-14T06:18:48.670Z,85.04
2019-04-14T06:21:20.104Z,85.54
2019-04-14T06:23:51.432Z,85.69
2019-04-14T06:26:22.755Z,85.21
2019-04-14T06:28:54.060Z,85.33
2019-04-14T06:31:59.461Z,85.28
2019-04-14T06:34:39.347Z,83.68
2019-04-14T06:37:19.853Z,82.75
2019-04-14T06:39:52.171Z,83.22
2019-04-14T06:42:23.498Z,83.25
2019-04-14T06:44:54.870Z,83.13
2019-04-14T06:47:26.177Z,82.33
2019-04-14T06:49:57.589Z,82.63
2019-04-14T06:52:28.884Z,82.26
2019-04-14T06:55:00.177Z,82.16
2019-04-14T06:57:31.531Z,82.49
2019-04-14T07:00:02.834Z,83.17
2019-04-14T07:02:34.170Z,82.03
2019-04-14T07:05:05.702Z,80.67
2019-04-14T07:07:37.002Z,80.41
2019-04-14T07:10:08.455Z,79.76
2019-04-14T07:12:39.763Z,77.81
2019-04-14T07:15:11.098Z,78.10
2019-04-14T07:17:42.424Z,77.43
2019-04-14T07:20:13.834Z,75.92
2019-04-14T07:22:45.174Z,77.22
2019-04-14T07:25:16.470Z,76.84
2019-04-14T07:27:51.261Z,75.72
2019-04-14T07:30:53.535Z,75.08
2019-04-14T07:33:58.658Z,75.44
2019-04-14T07:36:47.308Z,73.26
2019-04-14T07:39:35.875Z,72.65
2019-04-14T07:42:10.795Z,72.84
2019-04-14T07:45:02.513Z,72.74
2019-04-14T07:47:41.544Z,71.58
2019-04-14T07:50:30.646Z,71.42
2019-04-14T07:53:20.903Z,70.20
2019-04-14T07:56:00.631Z,68.87
2019-04-14T07:58:49.414Z,67.82
2019-04-14T08:01:27.570Z,67.92
2019-04-14T08:04:05.196Z,66.60
2019-04-14T08:06:38.375Z,66.66
2019-04-14T08:09:09.602Z,65.71
2019-04-14T08:11:40.941Z,63.46
2019-04-14T08:14:12.269Z,61.99
2019-04-14T08:16:43.588Z,60.46
2019-04-14T08:19:14.965Z,59.16
2019-04-14T08:21:46.278Z,58.51
2019-04-14T08:24:17.619Z,56.93
2019-04-14T08:26:48.933Z,57.28
2019-04-14T08:29:20.237Z,55.11
2019-04-14T08:31:51.572Z,54.83
2019-04-14T08:34:22.934Z,54.33
2019-04-14T08:36:54.248Z,53.42
2019-04-14T08:39:25.587Z,53.72
2019-04-14T08:42:24.623Z,51.97
2019-04-14T08:44:56.476Z,51.52
2019-04-14T08:47:45.293Z,51.59
2019-04-14T08:50:39.762Z,50.47
2019-04-14T08:53:22.861Z,48.42
2019-04-14T08:56:11.539Z,47.84
2019-04-14T08:59:01.794Z,49.35
2019-04-14T09:01:47.286Z,48.40
2019-04-14T09:04:29.459Z,48.40
2019-04-14T09:07:11.162Z,48.28
2019-04-14T09:09:49.129Z,46.04
2019-04-14T09:12:25.646Z,46.43
2019-04-14T09:14:57.746Z,46.23
2019-04-14T09:17:30.673Z,44.82
2019-04-14T09:20:02.010Z,44.06
2019-04-14T09:22:33.310Z,44.37
2019-04-14T09:25:04.953Z,43.76
2019-04-14T09:27:36.273Z,42.61
2019-04-14T09:30:08.705Z,42.77
2019-04-14T09:32:40.037Z,41.65
2019-04-14T09:35:11.464Z,40.48
2019-04-14T09:37:42.797Z,39.57
2019-04-14T09:40:14.155Z,38.30
2019-04-14T09:42:45.481Z,39.19
2019-04-14T09:45:17.027Z,37.71
2019-04-14T09:47:48.447Z,39.03
2019-04-14T09:50:19.755Z,39.60
2019-04-14T09:52:51.098Z,39.25
2019-04-14T09:55:23.681Z,38.67
2019-04-14T09:57:57.883Z,37.53
2019-04-14T10:00:29.271Z,38.88
2019-04-14T10:03:00.590Z,40.05
2019-04-14T10:05:31.914Z,38.95
2019-04-14T10:08:03.707Z,38.38
2019-04-14T10:10:35.048Z,38.81
2019-04-14T10:13:06.398Z,38.69
2019-04-14T10:15:37.634Z,38.27
2019-04-14T10:18:08.970Z,37.47
2019-04-14T10:20:40.340Z,37.18
2019-04-14T10:23:11.631Z,36.15
2019-04-14T10:25:43.034Z,36.02
2019-04-14T10:28:14.414Z,35.99
2019-04-14T10:30:45.855Z,35.90
2019-04-14T10:33:17.202Z,35.12
2019-04-14T10:35:48.577Z,34.91
2019-04-14T10:38:19.928Z,34.67
2019-04-14T10:40:51.360Z,34.54
2019-04-14T10:43:22.678Z,35.07
2019-04-14T10:45:54.141Z,36.50
2019-04-14T10:48:25.515Z,36.47
2019-04-14T10:50:56.789Z,37.75
2019-04-14T10:53:28.153Z,38.69
2019-04-14T10:55:59.514Z,36.27
2019-04-14T10:58:30.814Z,36.05
2019-04-14T11:01:02.257Z,35.71
2019-04-14T11:03:33.795Z,35.15
2019-04-14T11:06:22.316Z,34.63
2019-04-14T11:08:53.698Z,34.69
2019-04-14T11:11:25.025Z,35.03
2019-04-14T11:13:56.366Z,35.44
2019-04-14T11:16:27.716Z,35.44
2019-04-14T11:18:59.023Z,35.50
2019-04-14T11:21:41.912Z,34.82
2019-04-14T11:24:06.309Z,35.11
2019-04-14T11:26:37.646Z,35.36
2019-04-14T11:29:09.060Z,33.76
2019-04-14T11:32:02.392Z,34.44
2019-04-14T11:34:38.968Z,33.12
2019-04-14T11:37:29.148Z,34.05
2019-04-14T11:40:00.434Z,32.52
2019-04-14T11:42:31.814Z,33.74
2019-04-14T11:45:03.196Z,33.22
2019-04-14T11:47:34.587Z,33.09
2019-04-14T11:50:06.358Z,31.99
2019-04-14T11:52:37.778Z,31.41
2019-04-14T11:55:09.307Z,31.51
2019-04-14T11:57:40.753Z,32.61
2019-04-14T12:00:26.676Z,32.08
2019-04-14T12:03:13.178Z,31.29
2019-04-14T12:06:02.104Z,31.01
2019-04-14T12:08:48.122Z,31.90
2019-04-14T12:11:19.512Z,31.29
2019-04-14T12:13:50.833Z,31.75
2019-04-14T12:16:22.177Z,30.90
2019-04-14T12:18:53.515Z,31.72
2019-04-14T12:21:24.913Z,32.14
2019-04-14T12:23:56.286Z,32.37
2019-04-14T12:26:27.714Z,32.63
2019-04-14T12:29:01.596Z,32.52
2019-04-14T12:31:33.029Z,31.97
2019-04-14T12:34:04.556Z,31.33
2019-04-14T12:36:35.844Z,31.85
2019-04-14T12:39:17.278Z,31.91
2019-04-14T12:42:00.306Z,31.99
2019-04-14T12:44:41.387Z,32.24
2019-04-14T12:47:23.695Z,31.08
2019-04-14T12:49:55.549Z,30.84
2019-04-14T12:52:28.047Z,29.67
2019-04-14T12:54:59.752Z,29.34
2019-04-14T12:57:51.355Z,29.58
2019-04-14T13:00:42.716Z,29.74
2019-04-14T13:03:14.118Z,29.25
2019-04-14T13:05:45.477Z,29.81
2019-04-14T13:08:16.887Z,29.71
2019-04-14T13:10:48.209Z,29.81
2019-04-14T13:13:19.612Z,29.28
2019-04-14T13:15:50.959Z,28.71
2019-04-14T13:18:22.250Z,28.83
2019-04-14T13:20:53.714Z,29.74
2019-04-14T13:23:25.012Z,31.42
2019-04-14T13:25:56.351Z,32.24
2019-04-14T13:28:27.689Z,32.73
2019-04-14T13:30:59.026Z,33.22
2019-04-14T13:33:30.352Z,31.84
2019-04-14T13:36:01.704Z,31.70
2019-04-14T13:38:33.016Z,30.63
2019-04-14T13:41:04.340Z,30.97
2019-04-14T13:43:35.696Z,30.90
2019-04-14T13:46:07.070Z,30.30
2019-04-14T13:48:38.466Z,31.09
2019-04-14T13:51:09.800Z,31.69
2019-04-14T13:53:41.159Z,32.35
2019-04-14T13:56:12.495Z,32.41
2019-04-14T13:58:43.861Z,33.38
2019-04-14T14:01:15.313Z,33.53
2019-04-14T14:03:46.747Z,34.12
2019-04-14T14:06:18.296Z,34.36
2019-04-14T14:08:49.879Z,35.05
2019-04-14T14:11:43.278Z,35.00
2019-04-14T14:14:36.765Z,35.14
2019-04-14T14:17:20.507Z,35.15
2019-04-14T14:20:12.973Z,35.66
2019-04-14T14:23:06.296Z,35.72
2019-04-14T14:25:44.997Z,36.47
2019-04-14T14:28:16.413Z,36.92
2019-04-14T14:30:47.805Z,37.13
2019-04-14T14:33:19.151Z,37.18
2019-04-14T14:35:50.527Z,37.34
2019-04-14T14:38:21.941Z,37.80
2019-04-14T14:40:54.241Z,37.58
2019-04-14T14:43:25.701Z,37.02
2019-04-14T14:46:26.255Z,37.40
2019-04-14T14:49:08.462Z,37.62
2019-04-14T14:52:04.693Z,38.15
2019-04-14T14:54:36.102Z,39.25
2019-04-14T14:57:07.481Z,39.87
2019-04-14T14:59:38.937Z,39.90
2019-04-14T15:02:10.267Z,40.03
2019-04-14T15:04:41.615Z,40.37
2019-04-14T15:07:13.061Z,39.35
2019-04-14T15:09:44.577Z,39.10
2019-04-14T15:12:16.071Z,39.79
2019-04-14T15:14:47.542Z,40.74
2019-04-14T15:17:19.476Z,40.95
2019-04-14T15:19:50.950Z,41.59
2019-04-14T15:22:22.405Z,41.63
2019-04-14T15:24:53.816Z,42.46
2019-04-14T15:27:25.327Z,42.46
2019-04-14T15:29:56.877Z,42.35
2019-04-14T15:32:28.447Z,42.36
2019-04-14T15:35:00.093Z,42.15
2019-04-14T15:37:31.682Z,41.81
2019-04-14T15:40:03.332Z,41.23
2019-04-14T15:42:34.886Z,40.58
2019-04-14T15:45:07.152Z,40.49
2019-04-14T15:47:38.730Z,40.63
2019-04-14T15:50:10.701Z,40.88
2019-04-14T15:52:42.353Z,41.02
2019-04-14T15:55:15.006Z,41.73
2019-04-14T15:58:01.339Z,42.46
2019-04-14T16:00:50.398Z,42.14
2019-04-14T16:03:39.529Z,42.28
2019-04-14T16:06:21.143Z,42.64
2019-04-14T16:09:26.569Z,42.99
2019-04-14T16:12:03.628Z,43.56
2019-04-14T16:14:52.543Z,44.43
2019-04-14T16:17:52.128Z,43.75
2019-04-14T16:20:30.392Z,44.10
2019-04-14T16:23:02.037Z,44.80
2019-04-14T16:25:45.752Z,44.88
2019-04-14T16:28:21.951Z,44.52
2019-04-14T16:31:12.444Z,44.37
2019-04-14T16:34:01.765Z,45.03
2019-04-14T16:36:33.433Z,45.34
2019-04-14T16:39:06.344Z,45.35
2019-04-14T16:41:37.971Z,45.63
2019-04-14T16:44:09.611Z,45.95
2019-04-14T16:46:41.278Z,46.47
2019-04-14T16:49:12.886Z,46.92
2019-04-14T16:52:06.291Z,47.50
2019-04-14T16:54:43.390Z,47.96
2019-04-14T16:57:32.555Z,48.00
2019-04-14T17:00:05.429Z,48.75
2019-04-14T17:02:37.068Z,48.33
2019-04-14T17:05:08.709Z,47.37
2019-04-14T17:07:40.675Z,47.49
2019-04-14T17:10:12.430Z,46.96
2019-04-14T17:12:44.045Z,47.86
2019-04-14T17:15:37.537Z,47.53
2019-04-14T17:18:28.015Z,48.13
2019-04-14T17:21:13.096Z,47.78
2019-04-14T17:23:52.774Z,48.03
2019-04-14T17:26:43.354Z,48.06
2019-04-14T17:29:22.689Z,47.88
2019-04-14T17:32:05.874Z,48.37
2019-04-14T17:34:56.372Z,48.58
2019-04-14T17:37:45.553Z,48.74
2019-04-14T17:40:32.977Z,49.25
2019-04-14T17:43:21.196Z,49.51
2019-04-14T17:46:00.174Z,49.88
2019-04-14T17:48:52.566Z,49.91
2019-04-14T17:51:33.539Z,50.34
2019-04-14T17:54:29.686Z,50.88
2019-04-14T17:57:08.232Z,51.18
2019-04-14T18:00:13.681Z,51.76
2019-04-14T18:02:55.579Z,51.74
2019-04-14T18:05:37.563Z,51.62
2019-04-14T18:08:31.233Z,52.10
2019-04-14T18:11:28.920Z,52.76
2019-04-14T18:14:16.420Z,52.59
2019-04-14T18:17:09.732Z,52.78
2019-04-14T18:19:48.482Z,53.29
2019-04-14T18:22:20.094Z,53.37
2019-04-14T18:24:51.796Z,53.36
2019-04-14T18:27:23.484Z,54.26
2019-04-14T18:30:29.161Z,54.58
2019-04-14T18:33:17.984Z,54.24
2019-04-14T18:35:54.059Z,55.18
2019-04-14T18:38:44.605Z,54.17
2019-04-14T18:41:39.113Z,54.91
2019-04-14T18:44:34.586Z,54.96
2019-04-14T18:47:36.394Z,54.84
2019-04-14T18:50:17.272Z,55.34
2019-04-14T18:53:34.397Z,55.49
2019-04-14T18:56:10.939Z,55.29
2019-04-14T18:59:21.079Z,55.49
2019-04-14T19:02:03.815Z,56.04
2019-04-14T19:04:39.229Z,56.72
2019-04-14T19:07:10.902Z,57.02
2019-04-14T19:09:42.554Z,56.95
2019-04-14T19:12:36.113Z,56.60
2019-04-14T19:15:17.582Z,57.09
2019-04-14T19:18:17.484Z,57.50
2019-04-14T19:20:54.086Z,57.98
2019-04-14T19:23:25.753Z,58.53
2019-04-14T19:25:57.482Z,59.06
2019-04-14T19:28:29.105Z,60.03
2019-04-14T19:31:00.825Z,60.47
2019-04-14T19:33:32.425Z,60.14
2019-04-14T19:36:04.092Z,59.86
2019-04-14T19:38:35.874Z,60.52
2019-04-14T19:41:07.704Z,60.95
2019-04-14T19:43:39.391Z,60.95
2019-04-14T19:46:11.086Z,60.76
2019-04-14T19:48:42.742Z,61.44
2019-04-14T19:51:14.404Z,61.42
2019-04-14T19:53:46.030Z,62.36
2019-04-14T19:56:17.652Z,63.11
2019-04-14T19:58:49.273Z,63.25
2019-04-14T20:01:20.927Z,63.53
2019-04-14T20:03:52.569Z,63.63
2019-04-14T20:06:24.170Z,63.82
2019-04-14T20:08:55.841Z,64.41
2019-04-14T20:11:27.534Z,64.10
2019-04-14T20:13:59.188Z,64.25
2019-04-14T20:16:48.115Z,64.91
2019-04-14T20:19:29.833Z,65.18
2019-04-14T20:22:32.590Z,65.46
2019-04-14T20:25:34.012Z,65.08
2019-04-14T20:28:27.193Z,65.38
2019-04-14T20:31:16.214Z,65.93
2019-04-14T20:33:48.015Z,65.70
2019-04-14T20:36:19.522Z,66.36
2019-04-14T20:38:51.143Z,66.44
2019-04-14T20:41:22.806Z,66.49
2019-04-14T20:43:54.284Z,66.74
2019-04-14T20:46:25.803Z,66.74
2019-04-14T20:48:57.233Z,67.19
2019-04-14T20:51:28.645Z,66.59
2019-04-14T20:54:00.105Z,67.22
2019-04-14T20:56:31.479Z,67.53
2019-04-14T20:59:02.825Z,67.06
2019-04-14T21:01:36.167Z,67.43
2019-04-14T21:04:29.508Z,67.35
2019-04-14T21:07:25.499Z,67.67
2019-04-14T21:10:14.358Z,67.90
2019-04-14T21:12:54.666Z,68.20
2019-04-14T21:15:36.508Z,68.19
2019-04-14T21:18:11.687Z,67.94
2019-04-14T21:20:53.866Z,68.20
2019-04-14T21:23:39.848Z,68.20
2019-04-14T21:26:15.829Z,67.92
2019-04-14T21:29:09.597Z,68.13
2019-04-14T21:31:46.290Z,68.08
2019-04-14T21:34:35.010Z,68.22
2019-04-14T21:37:34.396Z,68.07
2019-04-14T21:40:34.251Z,68.28
2019-04-14T21:43:05.582Z,67.61
2019-04-14T21:45:36.931Z,67.64
2019-04-14T21:48:08.258Z,67.75
2019-04-14T21:50:39.959Z,68.16
2019-04-14T21:53:11.288Z,68.61
2019-04-14T21:55:43.504Z,69.21
2019-04-14T21:58:29.169Z,69.40
2019-04-14T22:01:54.321Z,69.34
2019-04-14T22:04:50.702Z,69.52
2019-04-14T22:07:47.064Z,69.96
2019-04-14T22:10:35.796Z,70.30
2019-04-14T22:13:07.258Z,70.67
2019-04-14T22:15:38.648Z,70.78
2019-04-14T22:18:09.930Z,70.87
2019-04-14T22:20:41.226Z,71.42
2019-04-14T22:23:13.207Z,71.78
2019-04-14T22:25:44.546Z,72.09
2019-04-14T22:28:15.848Z,71.94
2019-04-14T22:30:47.141Z,72.29
2019-04-14T22:33:18.502Z,72.56
2019-04-14T22:35:49.832Z,72.55
2019-04-14T22:38:21.215Z,72.39
2019-04-14T22:40:52.535Z,72.73
2019-04-14T22:43:23.923Z,72.83
2019-04-14T22:45:55.176Z,72.52
2019-04-14T22:48:26.468Z,72.05
2019-04-14T22:50:57.810Z,72.29
2019-04-14T22:53:29.081Z,72.50
2019-04-14T22:56:00.364Z,72.74
2019-04-14T22:58:31.706Z,72.84
2019-04-14T23:01:08.978Z,72.70
2019-04-14T23:04:11.370Z,72.76
2019-04-14T23:07:01.553Z,72.70
2019-04-14T23:09:54.911Z,72.65
2019-04-14T23:12:34.005Z,72.73
2019-04-14T23:15:22.785Z,72.48
2019-04-14T23:18:14.540Z,72.54
2019-04-14T23:21:06.601Z,72.50
2019-04-14T23:24:04.239Z,73.04
2019-04-14T23:26:35.563Z,73.69
2019-04-14T23:29:06.887Z,73.25
2019-04-14T23:31:38.153Z,73.31
2019-04-14T23:34:09.491Z,73.42
2019-04-14T23:36:40.828Z,73.55
2019-04-14T23:39:12.997Z,73.81
2019-04-14T23:41:44.279Z,73.68
2019-04-14T23:44:15.585Z,74.17
2019-04-14T23:46:46.912Z,74.13
2019-04-14T23:49:18.221Z,74.06
2019-04-14T23:51:49.585Z,74.05
2019-04-14T23:54:20.859Z,73.94
2019-04-14T23:57:04.410Z,74.41
2019-04-14T23:59:25.156Z,74.50
